createdAt,value
2018-04-24T00:01:25.080Z,5.70
2018-04-24T00:03:52.973Z,4.10
2018-04-24T00:06:21.089Z,4.40
2018-04-24T00:08:48.996Z,4.90
2018-04-24T00:11:16.897Z,3.73
2018-04-24T00:13:44.830Z,5.33
2018-04-24T00:16:12.742Z,6.00
2018-04-24T00:18:40.656Z,5.50
2018-04-24T00:21:08.584Z,4.57
2018-04-24T00:23:36.499Z,4.10
2018-04-24T00:26:04.426Z,4.43
2018-04-24T00:28:32.364Z,3.83
2018-04-24T00:31:00.315Z,4.17
2018-04-24T00:33:28.219Z,6.03
2018-04-24T00:35:57.119Z,4.37
2018-04-24T00:38:25.023Z,6.10
2018-04-24T00:40:52.956Z,3.83
2018-04-24T00:43:21.612Z,4.63
2018-04-24T00:45:49.665Z,6.90
2018-04-24T00:48:17.834Z,5.17
2018-04-24T00:50:45.783Z,4.70
2018-04-24T00:53:25.526Z,5.03
2018-04-24T00:55:53.486Z,4.50
2018-04-24T00:58:21.384Z,6.20
2018-04-24T01:00:49.289Z,4.80
2018-04-24T01:03:17.273Z,6.37
2018-04-24T01:05:45.200Z,4.27
2018-04-24T01:08:13.121Z,4.93
2018-04-24T01:10:41.045Z,6.40
2018-04-24T01:13:08.954Z,4.30
2018-04-24T01:15:36.855Z,5.77
2018-04-24T01:18:04.790Z,7.57
2018-04-24T01:20:32.732Z,5.20
2018-04-24T01:23:01.316Z,5.20
2018-04-24T01:25:29.308Z,4.97
2018-04-24T01:27:57.484Z,5.43
2018-04-24T01:30:25.390Z,8.07
2018-04-24T01:32:53.328Z,5.90
2018-04-24T01:35:21.792Z,5.27
2018-04-24T01:37:49.701Z,4.60
2018-04-24T01:40:17.655Z,5.57
2018-04-24T01:42:45.577Z,6.27
2018-04-24T01:45:13.490Z,8.23
2018-04-24T01:47:41.435Z,6.53
2018-04-24T01:50:09.497Z,7.47
2018-04-24T01:52:38.368Z,9.40
2018-04-24T01:55:06.419Z,8.87
2018-04-24T01:57:34.336Z,7.47
2018-04-24T02:00:02.246Z,8.07
2018-04-24T02:02:30.173Z,8.00
2018-04-24T02:04:58.080Z,8.27
2018-04-24T02:07:25.998Z,8.47
2018-04-24T02:09:54.066Z,6.70
2018-04-24T02:12:22.035Z,10.27
2018-04-24T02:14:49.947Z,8.90
2018-04-24T02:17:17.895Z,7.67
2018-04-24T02:19:45.841Z,9.70
2018-04-24T02:22:13.728Z,8.13
2018-04-24T02:24:41.666Z,8.93
2018-04-24T02:27:09.582Z,7.80
2018-04-24T02:29:37.505Z,7.17
2018-04-24T02:32:06.430Z,8.73
2018-04-24T02:34:34.356Z,8.77
2018-04-24T02:37:03.231Z,7.70
2018-04-24T02:39:31.161Z,10.73
2018-04-24T02:41:59.068Z,7.80
2018-04-24T02:44:26.994Z,7.67
2018-04-24T02:46:54.946Z,8.57
2018-04-24T02:49:22.854Z,10.80
2018-04-24T02:51:50.763Z,8.77
2018-04-24T02:54:18.688Z,9.67
2018-04-24T02:56:46.600Z,10.23
2018-04-24T02:59:14.509Z,9.70
2018-04-24T03:01:42.434Z,8.80
2018-04-24T03:04:10.341Z,8.97
2018-04-24T03:06:38.249Z,9.00
2018-04-24T03:09:06.196Z,9.67
2018-04-24T03:11:34.106Z,7.50
2018-04-24T03:14:02.041Z,6.73
2018-04-24T03:16:29.969Z,7.43
2018-04-24T03:18:57.889Z,9.40
2018-04-24T03:21:25.798Z,9.70
2018-04-24T03:23:53.787Z,6.60
2018-04-24T03:26:21.689Z,8.40
2018-04-24T03:28:49.606Z,7.13
2018-04-24T03:31:17.589Z,7.23
2018-04-24T03:33:45.507Z,7.07
2018-04-24T03:36:13.421Z,9.93
2018-04-24T03:38:41.356Z,6.80
2018-04-24T03:41:09.269Z,6.67
2018-04-24T03:43:37.173Z,7.73
2018-04-24T03:46:05.124Z,9.40
2018-04-24T03:48:33.089Z,8.13
2018-04-24T03:51:01.018Z,7.27
2018-04-24T03:53:28.953Z,8.60
2018-04-24T03:55:56.861Z,7.77
2018-04-24T03:58:24.797Z,6.60
2018-04-24T04:00:52.741Z,10.33
2018-04-24T04:03:20.664Z,7.03
2018-04-24T04:05:48.585Z,6.50
2018-04-24T04:08:16.509Z,8.67
2018-04-24T04:10:44.411Z,6.40
2018-04-24T04:13:12.313Z,6.93
2018-04-24T04:15:40.295Z,9.27
2018-04-24T04:18:19.949Z,8.13
2018-04-24T04:20:59.629Z,7.77
2018-04-24T04:23:39.463Z,6.10
2018-04-24T04:26:07.390Z,6.60
2018-04-24T04:28:35.305Z,7.17
2018-04-24T04:31:03.200Z,6.10
2018-04-24T04:33:31.141Z,7.20
2018-04-24T04:35:59.041Z,7.27
2018-04-24T04:38:26.954Z,5.47
2018-04-24T04:40:54.902Z,6.40
2018-04-24T04:43:22.815Z,6.43
2018-04-24T04:45:50.733Z,6.40
2018-04-24T04:48:18.676Z,6.93
2018-04-24T04:50:46.589Z,6.23
2018-04-24T04:53:14.500Z,5.30
2018-04-24T04:55:42.453Z,5.00
2018-04-24T04:58:10.357Z,6.13
2018-04-24T05:00:38.269Z,5.93
2018-04-24T05:03:06.213Z,5.77
2018-04-24T05:05:34.149Z,10.97
2018-04-24T05:08:02.073Z,3.77
2018-04-24T05:10:30.022Z,5.50
2018-04-24T05:12:57.964Z,4.23
2018-04-24T05:15:25.889Z,4.93
2018-04-24T05:17:53.826Z,8.67
2018-04-24T05:20:21.760Z,4.50
2018-04-24T05:22:49.677Z,4.77
2018-04-24T05:25:17.616Z,5.93
2018-04-24T05:27:45.524Z,5.90
2018-04-24T05:30:13.445Z,6.67
2018-04-24T05:32:41.388Z,7.30
2018-04-24T05:35:13.335Z,5.20
2018-04-24T05:37:41.281Z,6.10
2018-04-24T05:40:09.220Z,4.50
2018-04-24T05:42:37.135Z,5.43
2018-04-24T05:45:05.064Z,5.67
2018-04-24T05:47:33.014Z,5.10
2018-04-24T05:50:01.007Z,5.37
2018-04-24T05:52:33.517Z,6.07
2018-04-24T05:55:05.463Z,6.60
2018-04-24T05:57:34.412Z,4.47
2018-04-24T06:00:02.382Z,4.17
2018-04-24T06:02:30.289Z,6.30
2018-04-24T06:04:58.221Z,4.87
2018-04-24T06:07:26.147Z,6.93
2018-04-24T06:09:54.065Z,8.30
2018-04-24T06:12:22.006Z,5.40
2018-04-24T06:14:49.908Z,9.37
2018-04-24T06:17:17.826Z,6.73
2018-04-24T06:19:45.779Z,4.77
2018-04-24T06:22:13.703Z,5.20
2018-04-24T06:24:41.615Z,4.40
2018-04-24T06:27:09.565Z,8.23
2018-04-24T06:29:37.481Z,6.33
2018-04-24T06:32:05.400Z,6.37
2018-04-24T06:34:33.335Z,6.53
2018-04-24T06:37:01.235Z,5.53
2018-04-24T06:39:29.144Z,6.33
2018-04-24T06:41:57.091Z,5.60
2018-04-24T06:44:24.998Z,5.80
2018-04-24T06:46:52.915Z,8.23
2018-04-24T06:49:20.857Z,5.17
2018-04-24T06:51:48.767Z,7.50
2018-04-24T06:54:16.684Z,7.87
2018-04-24T06:56:44.613Z,5.63
2018-04-24T06:59:12.534Z,6.23
2018-04-24T07:01:40.454Z,7.03
2018-04-24T07:04:08.385Z,5.73
2018-04-24T07:06:36.310Z,5.10
2018-04-24T07:09:04.217Z,7.67
2018-04-24T07:11:32.176Z,6.83
2018-04-24T07:14:00.090Z,7.97
2018-04-24T07:16:27.992Z,7.33
2018-04-24T07:18:55.913Z,5.07
2018-04-24T07:21:23.824Z,6.93
2018-04-24T07:23:51.734Z,5.80
2018-04-24T07:26:19.662Z,9.37
2018-04-24T07:28:47.592Z,7.60
2018-04-24T07:31:15.514Z,5.87
2018-04-24T07:33:43.478Z,9.13
2018-04-24T07:36:11.390Z,6.87
2018-04-24T07:38:39.330Z,5.87
2018-04-24T07:41:07.352Z,5.63
2018-04-24T07:43:35.185Z,9.10
2018-04-24T07:46:03.201Z,9.70
2018-04-24T07:48:31.153Z,6.67
2018-04-24T07:50:59.066Z,6.67
2018-04-24T07:53:26.978Z,8.03
2018-04-24T07:55:54.937Z,6.10
2018-04-24T07:58:22.883Z,8.67
2018-04-24T08:00:50.790Z,6.53
2018-04-24T08:03:20.761Z,7.17
2018-04-24T08:05:48.693Z,7.40
2018-04-24T08:08:16.683Z,7.90
2018-04-24T08:10:44.634Z,8.57
2018-04-24T08:13:12.544Z,6.57
2018-04-24T08:15:40.454Z,6.73
2018-04-24T08:18:08.400Z,6.80
2018-04-24T08:20:36.366Z,7.13
2018-04-24T08:23:04.373Z,7.73
2018-04-24T08:25:32.409Z,11.30
2018-04-24T08:28:00.321Z,9.13
2018-04-24T08:30:28.243Z,9.30
2018-04-24T08:32:56.216Z,16.20
2018-04-24T08:35:24.155Z,6.57
2018-04-24T08:37:52.070Z,9.13
2018-04-24T08:40:21.345Z,7.37
2018-04-24T08:42:49.294Z,7.43
2018-04-24T08:45:17.434Z,10.57
2018-04-24T08:47:45.400Z,10.23
2018-04-24T08:50:13.315Z,7.77
2018-04-24T08:52:41.222Z,9.63
2018-04-24T08:55:09.157Z,7.73
2018-04-24T08:57:37.076Z,11.23
2018-04-24T09:00:05.011Z,7.27
2018-04-24T09:02:32.944Z,7.73
2018-04-24T09:05:00.860Z,11.37
2018-04-24T09:07:28.778Z,8.60
2018-04-24T09:09:56.708Z,8.43
2018-04-24T09:12:24.641Z,9.00
2018-04-24T09:14:52.561Z,8.30
2018-04-24T09:17:20.513Z,8.57
2018-04-24T09:19:48.449Z,9.80
2018-04-24T09:22:16.369Z,8.57
2018-04-24T09:24:44.310Z,12.07
2018-04-24T09:27:12.310Z,10.43
2018-04-24T09:29:40.157Z,9.60
2018-04-24T09:32:08.107Z,10.97
2018-04-24T09:34:36.050Z,12.00
2018-04-24T09:37:03.966Z,9.90
2018-04-24T09:39:31.943Z,12.47
2018-04-24T09:41:59.884Z,15.03
2018-04-24T09:44:28.761Z,10.73
2018-04-24T09:46:56.718Z,9.13
2018-04-24T09:49:24.645Z,12.80
2018-04-24T09:51:52.590Z,10.00
2018-04-24T09:54:21.014Z,9.50
2018-04-24T09:56:49.037Z,10.60
2018-04-24T09:59:16.997Z,10.23
2018-04-24T10:01:45.496Z,12.80
2018-04-24T10:04:13.430Z,11.00
2018-04-24T10:06:41.360Z,11.23
2018-04-24T10:09:09.309Z,10.70
2018-04-24T10:11:37.246Z,10.63
2018-04-24T10:14:05.168Z,11.47
2018-04-24T10:16:33.134Z,10.20
2018-04-24T10:19:02.042Z,10.57
2018-04-24T10:21:29.958Z,10.80
2018-04-24T10:23:57.913Z,12.33
2018-04-24T10:26:25.915Z,10.77
2018-04-24T10:28:53.901Z,13.20
2018-04-24T10:31:22.881Z,11.00
2018-04-24T10:33:50.863Z,10.90
2018-04-24T10:36:18.830Z,10.43
2018-04-24T10:38:46.772Z,11.57
2018-04-24T10:41:14.685Z,10.70
2018-04-24T10:43:42.614Z,12.13
2018-04-24T10:46:10.571Z,13.53
2018-04-24T10:48:38.493Z,11.87
2018-04-24T10:51:06.406Z,10.97
2018-04-24T10:53:34.352Z,12.83
2018-04-24T10:56:02.318Z,12.30
2018-04-24T10:58:30.262Z,11.57
2018-04-24T11:00:58.222Z,12.30
2018-04-24T11:03:26.140Z,12.83
2018-04-24T11:05:54.064Z,12.10
2018-04-24T11:08:22.105Z,20.80
2018-04-24T11:10:50.050Z,11.60
2018-04-24T11:13:18.882Z,11.63
2018-04-24T11:15:46.832Z,12.50
2018-04-24T11:18:14.808Z,14.03
2018-04-24T11:20:42.740Z,12.07
2018-04-24T11:23:10.698Z,11.43
2018-04-24T11:25:38.614Z,11.70
2018-04-24T11:28:06.525Z,11.20
2018-04-24T11:30:34.476Z,11.30
2018-04-24T11:33:02.395Z,11.20
2018-04-24T11:35:30.351Z,11.93
2018-04-24T11:38:05.987Z,10.93
2018-04-24T11:40:39.910Z,11.17
2018-04-24T11:43:08.003Z,11.50
2018-04-24T11:45:35.974Z,10.90
2018-04-24T11:48:03.924Z,13.40
2018-04-24T11:50:31.946Z,11.77
2018-04-24T11:52:59.887Z,11.97
2018-04-24T11:55:27.829Z,10.37
2018-04-24T11:57:55.802Z,12.63
2018-04-24T12:00:23.750Z,11.00
2018-04-24T12:06:05.663Z,11.10
2018-04-24T12:08:33.617Z,12.00
2018-04-24T12:11:01.635Z,12.70
2018-04-24T12:13:29.571Z,12.27
2018-04-24T12:15:57.544Z,12.80
2018-04-24T12:18:25.492Z,14.53
2018-04-24T12:20:53.418Z,12.97
2018-04-24T12:23:21.370Z,13.73
2018-04-24T12:25:49.323Z,12.47
2018-04-24T12:28:17.296Z,13.80
2018-04-24T12:30:45.267Z,17.27
2018-04-24T12:33:13.191Z,14.60
2018-04-24T12:35:41.140Z,12.97
2018-04-24T12:38:09.105Z,13.83
2018-04-24T12:40:37.032Z,12.20
2018-04-24T12:43:04.958Z,13.37
2018-04-24T12:45:32.919Z,12.20
2018-04-24T12:48:00.854Z,12.80
2018-04-24T12:50:28.806Z,14.00
2018-04-24T12:52:56.756Z,15.63
2018-04-24T12:55:25.053Z,13.20
2018-04-24T12:57:53.048Z,12.97
2018-04-24T13:00:20.965Z,11.73
2018-04-24T13:02:48.891Z,15.60
2018-04-24T13:05:17.770Z,13.90
2018-04-24T13:07:45.721Z,13.10
2018-04-24T13:10:13.702Z,13.40
2018-04-24T13:12:41.775Z,14.60
2018-04-24T13:20:52.642Z,14.63
2018-04-24T13:23:20.580Z,14.53
2018-04-24T13:25:48.570Z,15.03
2018-04-24T13:28:16.496Z,14.90
2018-04-24T13:30:50.345Z,14.17
2018-04-24T13:33:18.391Z,14.27
2018-04-24T13:35:46.333Z,15.30
2018-04-24T13:38:14.276Z,14.17
2018-04-24T13:40:42.244Z,15.83
2018-04-24T13:43:10.261Z,14.40
2018-04-24T13:45:38.202Z,14.33
2018-04-24T13:48:06.116Z,15.00
2018-04-24T13:50:34.108Z,14.47
2018-04-24T13:53:02.084Z,14.23
2018-04-24T14:01:10.274Z,16.63
2018-04-24T14:03:38.201Z,18.37
2018-04-24T14:06:06.121Z,16.90
2018-04-24T14:08:34.071Z,18.97
2018-04-24T14:11:02.012Z,17.47
2018-04-24T14:13:34.659Z,17.40
2018-04-24T14:16:03.135Z,19.33
2018-04-24T14:18:31.062Z,18.10
2018-04-24T14:20:59.929Z,19.73
2018-04-24T14:23:27.890Z,16.50
2018-04-24T14:25:55.805Z,18.00
2018-04-24T14:28:23.746Z,20.57
2018-04-24T14:30:51.715Z,28.07
2018-04-24T14:33:19.643Z,18.10
2018-04-24T14:35:47.592Z,20.20
2018-04-24T14:38:15.536Z,15.27
2018-04-24T14:40:43.495Z,17.80
2018-04-24T14:43:11.484Z,17.03
2018-04-24T14:45:39.484Z,17.30
2018-04-24T14:48:07.439Z,17.90
2018-04-24T14:50:35.389Z,16.73
2018-04-24T14:53:03.460Z,17.47
2018-04-24T14:55:31.771Z,16.80
2018-04-24T14:57:59.774Z,16.57
2018-04-24T15:00:27.783Z,18.03
2018-04-24T15:02:55.763Z,17.83
2018-04-24T15:05:23.706Z,18.40
2018-04-24T15:07:51.772Z,16.67
2018-04-24T15:10:19.790Z,17.80
2018-04-24T15:12:47.996Z,17.33
2018-04-24T15:15:16.019Z,15.97
2018-04-24T15:17:43.981Z,17.33
2018-04-24T15:20:12.784Z,17.03
2018-04-24T15:22:40.736Z,19.03
2018-04-24T15:25:08.664Z,17.13
2018-04-24T15:27:36.609Z,16.93
2018-04-24T15:30:04.571Z,16.40
2018-04-24T15:32:32.505Z,16.63
2018-04-24T15:35:00.507Z,16.73
2018-04-24T15:37:28.407Z,14.70
2018-04-24T15:39:56.331Z,15.63
2018-04-24T15:42:24.342Z,17.57
2018-04-24T15:44:52.398Z,16.07
2018-04-24T15:47:20.326Z,16.30
2018-04-24T15:49:48.326Z,18.03
2018-04-24T15:52:38.417Z,18.50
2018-04-24T15:57:45.328Z,16.80
2018-04-24T16:00:13.893Z,15.90
2018-04-24T16:02:41.826Z,16.40
2018-04-24T16:05:09.764Z,17.67
2018-04-24T16:07:58.404Z,15.90
2018-04-24T16:10:44.843Z,14.87
2018-04-24T16:26:03.941Z,14.87
2018-04-24T16:28:31.864Z,16.70
2018-04-24T16:30:59.790Z,16.53
2018-04-24T16:33:27.743Z,16.53
2018-04-24T16:35:55.751Z,16.73
2018-04-24T16:38:24.022Z,15.67
2018-04-24T16:40:54.105Z,16.23
2018-04-24T16:43:24.082Z,16.43
2018-04-24T16:46:06.165Z,16.43
2018-04-24T16:48:36.430Z,14.90
2018-04-24T16:51:04.457Z,17.40
2018-04-24T16:53:32.385Z,16.80
2018-04-24T16:56:00.342Z,17.03
2018-04-24T16:58:28.301Z,16.27
2018-04-24T17:00:56.223Z,17.27
2018-04-24T17:03:24.331Z,16.23
2018-04-24T17:05:52.375Z,18.37
2018-04-24T17:08:20.314Z,16.17
2018-04-24T17:10:49.193Z,17.67
2018-04-24T17:13:17.153Z,18.10
2018-04-24T17:15:45.675Z,16.63
2018-04-24T17:18:13.601Z,18.47
2018-04-24T17:20:41.578Z,18.10
2018-04-24T17:23:09.629Z,17.30
2018-04-24T17:25:37.609Z,17.47
2018-04-24T17:28:05.549Z,17.97
2018-04-24T17:30:33.468Z,18.17
2018-04-24T17:33:01.413Z,19.33
2018-04-24T17:35:29.472Z,17.58
2018-04-24T17:37:57.313Z,18.40
2018-04-24T17:40:25.274Z,16.77
2018-04-24T17:42:54.413Z,18.27
2018-04-24T17:45:22.354Z,16.67
2018-04-24T17:47:50.282Z,19.07
2018-04-24T17:50:18.213Z,18.50
2018-04-24T17:52:46.139Z,19.00
2018-04-24T17:55:14.098Z,19.30
2018-04-24T17:57:42.053Z,16.80
2018-04-24T18:00:10.951Z,18.60
2018-04-24T18:02:38.895Z,16.23
2018-04-24T18:05:06.870Z,17.10
2018-04-24T18:07:34.835Z,19.60
2018-04-24T18:10:02.778Z,17.20
2018-04-24T18:12:30.738Z,17.07
2018-04-24T18:14:58.699Z,16.17
2018-04-24T18:17:26.640Z,18.20
2018-04-24T18:19:54.608Z,17.53
2018-04-24T18:22:22.604Z,17.33
2018-04-24T18:24:57.134Z,17.47
2018-04-24T18:27:25.081Z,14.33
2018-04-24T18:29:53.087Z,17.47
2018-04-24T18:32:21.062Z,15.90
2018-04-24T18:34:49.040Z,17.07
2018-04-24T18:37:31.010Z,16.95
2018-04-24T18:40:06.802Z,16.30
2018-04-24T18:42:34.958Z,18.00
2018-04-24T18:45:02.966Z,15.90
2018-04-24T18:47:30.992Z,17.37
2018-04-24T18:49:59.013Z,16.70
2018-04-24T18:52:27.916Z,15.70
2018-04-24T18:54:56.059Z,15.07
2018-04-24T18:57:26.686Z,18.10
2018-04-24T18:59:55.486Z,18.17
2018-04-24T19:02:25.472Z,16.77
2018-04-24T19:04:55.453Z,17.53
2018-04-24T19:07:23.468Z,16.77
2018-04-24T19:09:52.060Z,16.70
2018-04-24T19:12:20.070Z,16.17
2018-04-24T19:14:48.131Z,18.37
2018-04-24T19:17:18.520Z,17.40
2018-04-24T19:19:49.216Z,16.67
2018-04-24T19:22:17.947Z,17.30
2018-04-24T19:24:51.737Z,18.40
2018-04-24T19:27:21.699Z,19.60
2018-04-24T19:29:49.723Z,17.10
2018-04-24T19:32:23.890Z,17.73
2018-04-24T19:34:52.355Z,17.40
2018-04-24T19:37:20.325Z,18.60
2018-04-24T19:39:54.206Z,17.23
2018-04-24T19:42:24.793Z,19.20
2018-04-24T19:44:56.523Z,19.23
2018-04-24T19:47:26.124Z,17.53
2018-04-24T19:49:59.874Z,18.80
2018-04-24T19:52:29.715Z,18.00
2018-04-24T19:55:05.949Z,17.53
2018-04-24T19:57:34.070Z,18.50
2018-04-24T20:00:04.703Z,20.90
2018-04-24T20:02:42.389Z,17.30
2018-04-24T20:05:36.858Z,20.00
2018-04-24T20:08:06.290Z,20.43
2018-04-24T20:10:35.207Z,19.40
2018-04-24T20:13:04.871Z,22.50
2018-04-24T20:15:36.972Z,21.90
2018-04-24T20:18:05.899Z,21.27
2018-04-24T20:20:36.387Z,22.10
2018-04-24T20:36:00.343Z,21.60
2018-04-24T20:38:28.257Z,18.83
2018-04-24T20:40:56.805Z,19.63
2018-04-24T20:43:28.567Z,19.83
2018-04-24T20:45:56.481Z,19.20
2018-04-24T20:48:24.415Z,20.10
2018-04-24T20:50:52.362Z,20.47
2018-04-24T20:53:20.465Z,19.43
2018-04-24T20:55:48.277Z,20.40
2018-04-24T20:58:16.220Z,20.53
2018-04-24T21:00:44.222Z,20.97
2018-04-24T21:03:12.109Z,21.27
2018-04-24T21:05:40.034Z,22.57
2018-04-24T21:08:08.082Z,20.30
2018-04-24T21:10:36.013Z,22.23
2018-04-24T21:13:03.951Z,24.03
2018-04-24T21:15:31.880Z,23.30
2018-04-24T21:18:00.789Z,22.63
2018-04-24T21:20:28.865Z,23.30
2018-04-24T21:22:56.835Z,23.57
2018-04-24T21:25:24.779Z,25.53
2018-04-24T21:27:52.756Z,23.37
2018-04-24T21:30:20.751Z,24.50
2018-04-24T21:32:48.633Z,24.63
2018-04-24T21:35:16.605Z,25.53
2018-04-24T21:37:44.533Z,28.53
2018-04-24T21:40:12.467Z,25.13
2018-04-24T21:42:40.427Z,28.40
2018-04-24T21:45:08.349Z,29.10
2018-04-24T21:47:36.315Z,27.83
2018-04-24T21:50:04.291Z,27.40
2018-04-24T21:52:32.280Z,26.60
2018-04-24T21:55:00.237Z,26.90
2018-04-24T21:57:28.217Z,29.97
2018-04-24T21:59:56.143Z,31.17
2018-04-24T22:02:24.070Z,27.80
2018-04-24T22:04:52.234Z,30.47
2018-04-24T22:07:20.154Z,27.33
2018-04-24T22:09:48.102Z,29.30
2018-04-24T22:12:16.051Z,28.33
2018-04-24T22:14:43.975Z,27.70
2018-04-24T22:17:11.898Z,29.17
2018-04-24T22:19:39.850Z,30.03
2018-04-24T22:22:07.866Z,27.80
2018-04-24T22:24:35.801Z,27.33
2018-04-24T22:27:03.805Z,28.87
2018-04-24T22:29:31.887Z,29.10
2018-04-24T22:31:59.810Z,28.50
2018-04-24T22:34:27.786Z,27.17
2018-04-24T22:36:55.729Z,27.90
2018-04-24T22:39:23.785Z,28.60
2018-04-24T22:41:51.749Z,28.07
2018-04-24T22:44:19.694Z,28.83
2018-04-24T22:46:47.632Z,28.00
2018-04-24T22:49:15.595Z,29.25
2018-04-24T22:51:43.512Z,30.57
2018-04-24T22:54:11.445Z,29.63
2018-04-24T22:56:39.391Z,29.73
2018-04-24T22:59:07.317Z,29.57
2018-04-24T23:01:35.242Z,29.97
2018-04-24T23:04:03.341Z,26.63
2018-04-24T23:06:37.599Z,30.17
2018-04-24T23:09:06.498Z,31.07
2018-04-24T23:11:41.058Z,28.40
2018-04-24T23:14:20.997Z,29.20
2018-04-24T23:17:00.699Z,27.57
2018-04-24T23:19:40.564Z,24.53
2018-04-24T23:22:08.657Z,27.40
2018-04-24T23:24:36.589Z,25.97
2018-04-24T23:27:07.120Z,26.47
2018-04-24T23:29:35.036Z,27.83
2018-04-24T23:32:04.276Z,27.27
2018-04-24T23:34:32.851Z,24.03
2018-04-24T23:37:01.899Z,26.80
2018-04-24T23:39:30.182Z,23.87
2018-04-24T23:41:58.118Z,27.00
2018-04-24T23:44:26.130Z,23.60
2018-04-24T23:46:54.044Z,23.20
2018-04-24T23:49:22.050Z,22.70
2018-04-24T23:51:49.964Z,21.30
2018-04-24T23:54:17.907Z,21.40
2018-04-24T23:56:45.849Z,21.83
2018-04-24T23:59:13.810Z,21.67
